バンダルスリブガワン の空港の天気 - METARとTAF

ブルネイ国際空港 ( WBSB / BWN ) - ブルネイ バンダルスリブガワン
飛行場実況気象(Metar)
観測時間12/01 01:00 BNT (11/30 17:00 UTC)
風向・風速南南東 2m/s
視程10km以上
天気現象
少しの雲 雲底高度 150m
少しの雲 雲底高度 460m
全天の8割程度の雲 雲底高度 4270m
気温25℃
湿度100%
気圧1008hPa
METARWBSB 301700Z 15003KT 9999 TS FEW005 FEW015CB BKN140 25/25 Q1008 RERA NOSIG
過去の天気等 Google飛行場航空写真 Wunderground天気予報

過去48時間のMETAR

飛行場予報(TAF)
発表時間: 11/30 19:00 BNT (11/30 11:00 UTC)
予報対象時間: 30日20時 BNT ~ 2日2時 BNT
風向・風速北 4m/s
視程10km以上
全天の4割程度の雲 雲底高度 460m
少しの積乱雲 雲底高度 490m
30日20時 BNT ~ 30日24時 BNT に一時的に
視程6000m
天気現象弱い雷雨
30日22時 BNT ~ 30日24時 BNT に徐々に
風向・風速東北東 2m/s
全天の4割程度の雲 雲底高度 430m
少しの積乱雲 雲底高度 460m
TAF WBSB 301100Z 3012/0118 35008KT 9999 SCT015 FEW016CB
TEMPO 3012/3016 6000 -TSRA
BECMG 3014/3016 06004KT SCT014 FEW015CB